sensor_id;sensor_type;location;lat;lon;timestamp;pressure;altitude;pressure_sealevel;temperature;humidity
53932;BME280;39844;52.496;13.482;2023-05-09T00:00:28;102214.81;;;9.92;58.96
53932;BME280;39844;52.496;13.482;2023-05-09T00:02:54;102216.56;;;9.92;59.06
53932;BME280;39844;52.496;13.482;2023-05-09T00:05:19;102207.78;;;9.90;59.07
53932;BME280;39844;52.496;13.482;2023-05-09T00:07:45;102212.09;;;9.88;59.16
53932;BME280;39844;52.496;13.482;2023-05-09T00:10:10;102212.09;;;9.86;59.13
53932;BME280;39844;52.496;13.482;2023-05-09T00:12:35;102210.38;;;9.88;59.37
53932;BME280;39844;52.496;13.482;2023-05-09T00:15:01;102217.34;;;9.88;59.87
53932;BME280;39844;52.496;13.482;2023-05-09T00:17:26;102211.22;;;9.87;59.60
53932;BME280;39844;52.496;13.482;2023-05-09T00:19:51;102213.84;;;9.87;59.35
53932;BME280;39844;52.496;13.482;2023-05-09T00:22:17;102216.50;;;9.89;59.22
53932;BME280;39844;52.496;13.482;2023-05-09T00:24:43;102211.28;;;9.90;58.95
53932;BME280;39844;52.496;13.482;2023-05-09T00:27:08;102215.72;;;9.93;58.84
53932;BME280;39844;52.496;13.482;2023-05-09T00:29:33;102207.84;;;9.93;59.07
53932;BME280;39844;52.496;13.482;2023-05-09T00:31:59;102212.19;;;9.92;58.99
53932;BME280;39844;52.496;13.482;2023-05-09T00:34:24;102208.75;;;9.93;58.71
53932;BME280;39844;52.496;13.482;2023-05-09T00:36:49;102206.94;;;9.92;58.68
53932;BME280;39844;52.496;13.482;2023-05-09T00:39:15;102205.19;;;9.91;58.26
53932;BME280;39844;52.496;13.482;2023-05-09T00:41:40;102200.78;;;9.90;58.42
53932;BME280;39844;52.496;13.482;2023-05-09T00:44:05;102208.66;;;9.90;58.35
53932;BME280;39844;52.496;13.482;2023-05-09T00:46:31;102207.78;;;9.90;58.65
53932;BME280;39844;52.496;13.482;2023-05-09T00:48:56;102208.66;;;9.90;58.31
53932;BME280;39844;52.496;13.482;2023-05-09T00:51:22;102209.50;;;9.89;58.72
53932;BME280;39844;52.496;13.482;2023-05-09T00:53:48;102205.13;;;9.88;58.50
53932;BME280;39844;52.496;13.482;2023-05-09T00:56:13;102201.59;;;9.86;58.69
53932;BME280;39844;52.496;13.482;2023-05-09T00:58:39;102198.03;;;9.84;58.66
53932;BME280;39844;52.496;13.482;2023-05-09T01:01:05;102195.38;;;9.83;58.70
53932;BME280;39844;52.496;13.482;2023-05-09T01:03:31;102193.66;;;9.83;58.45
53932;BME280;39844;52.496;13.482;2023-05-09T01:06:05;102189.25;;;9.82;58.43
53932;BME280;39844;52.496;13.482;2023-05-09T01:08:56;102187.50;;;9.81;58.38
53932;BME280;39844;52.496;13.482;2023-05-09T01:18:00;102173.50;;;9.82;57.96
53932;BME280;39844;52.496;13.482;2023-05-09T01:20:08;102176.19;;;9.84;57.94
53932;BME280;39844;52.496;13.482;2023-05-09T01:22:40;102167.44;;;9.85;57.65
53932;BME280;39844;52.496;13.482;2023-05-09T01:28:13;102179.81;;;9.90;56.72
53932;BME280;39844;52.496;13.482;2023-05-09T01:30:44;102178.09;;;9.91;56.62
53932;BME280;39844;52.496;13.482;2023-05-09T01:33:12;102168.47;;;9.91;56.70
53932;BME280;39844;52.496;13.482;2023-05-09T01:35:40;102177.25;;;9.93;56.36
53932;BME280;39844;52.496;13.482;2023-05-09T01:38:12;102171.13;;;9.93;56.11
53932;BME280;39844;52.496;13.482;2023-05-09T01:40:39;102172.03;;;9.95;56.05
53932;BME280;39844;52.496;13.482;2023-05-09T01:43:07;102165.88;;;9.93;56.10
53932;BME280;39844;52.496;13.482;2023-05-09T01:45:35;102169.41;;;9.95;55.90
53932;BME280;39844;52.496;13.482;2023-05-09T01:48:01;102172.00;;;9.93;55.57
53932;BME280;39844;52.496;13.482;2023-05-09T01:50:28;102165.00;;;9.92;55.29
53932;BME280;39844;52.496;13.482;2023-05-09T01:52:55;102160.63;;;9.93;54.98
53932;BME280;39844;52.496;13.482;2023-05-09T01:55:22;102164.22;;;9.96;54.71
53932;BME280;39844;52.496;13.482;2023-05-09T01:57:49;102163.34;;;9.97;54.39
53932;BME280;39844;52.496;13.482;2023-05-09T02:00:15;102157.22;;;9.97;54.39
53932;BME280;39844;52.496;13.482;2023-05-09T02:02:41;102165.13;;;9.98;54.00
53932;BME280;39844;52.496;13.482;2023-05-09T02:05:08;102164.25;;;9.98;53.58
53932;BME280;39844;52.496;13.482;2023-05-09T02:07:35;102161.63;;;9.98;53.82
53932;BME280;39844;52.496;13.482;2023-05-09T02:10:01;102159.88;;;9.98;53.67
53932;BME280;39844;52.496;13.482;2023-05-09T02:12:27;102157.22;;;9.97;53.52
53932;BME280;39844;52.496;13.482;2023-05-09T02:14:52;102164.25;;;9.98;53.43
53932;BME280;39844;52.496;13.482;2023-05-09T02:17:18;102158.97;;;9.96;53.52
53932;BME280;39844;52.496;13.482;2023-05-09T02:19:43;102156.28;;;9.95;53.31
53932;BME280;39844;52.496;13.482;2023-05-09T02:22:09;102152.78;;;9.94;53.16
53932;BME280;39844;52.496;13.482;2023-05-09T02:24:36;102151.06;;;9.95;53.10
53932;BME280;39844;52.496;13.482;2023-05-09T02:27:02;102158.03;;;9.94;52.93
53932;BME280;39844;52.496;13.482;2023-05-09T02:29:31;102158.00;;;9.93;53.07
53932;BME280;39844;52.496;13.482;2023-05-09T02:31:58;102157.09;;;9.91;53.16
53932;BME280;39844;52.496;13.482;2023-05-09T02:34:25;102160.53;;;9.88;53.34
53932;BME280;39844;52.496;13.482;2023-05-09T02:36:51;102157.84;;;9.85;53.07
53932;BME280;39844;52.496;13.482;2023-05-09T02:39:16;102168.34;;;9.85;53.03
53932;BME280;39844;52.496;13.482;2023-05-09T02:41:47;102166.53;;;9.84;52.98
53932;BME280;39844;52.496;13.482;2023-05-09T02:44:12;102164.78;;;9.83;53.07
53932;BME280;39844;52.496;13.482;2023-05-09T02:46:38;102164.78;;;9.83;53.08
53932;BME280;39844;52.496;13.482;2023-05-09T02:49:03;102166.53;;;9.84;52.77
53932;BME280;39844;52.496;13.482;2023-05-09T02:51:28;102165.69;;;9.84;52.92
53932;BME280;39844;52.496;13.482;2023-05-09T02:53:53;102157.78;;;9.82;52.74
53932;BME280;39844;52.496;13.482;2023-05-09T02:56:19;102162.13;;;9.82;53.23
53932;BME280;39844;52.496;13.482;2023-05-09T02:58:44;102171.69;;;9.78;53.07
53932;BME280;39844;52.496;13.482;2023-05-09T03:01:09;102161.13;;;9.75;53.30
53932;BME280;39844;52.496;13.482;2023-05-09T03:03:34;102161.94;;;9.73;53.37
53932;BME280;39844;52.496;13.482;2023-05-09T03:06:00;102159.25;;;9.71;53.75
53932;BME280;39844;52.496;13.482;2023-05-09T03:08:25;102150.47;;;9.69;53.58
53932;BME280;39844;52.496;13.482;2023-05-09T03:10:50;102150.47;;;9.69;53.43
53932;BME280;39844;52.496;13.482;2023-05-09T03:13:16;102161.78;;;9.67;53.64
53932;BME280;39844;52.496;13.482;2023-05-09T03:15:41;102147.78;;;9.66;53.28
53932;BME280;39844;52.496;13.482;2023-05-09T03:18:06;102149.53;;;9.66;53.40
53932;BME280;39844;52.496;13.482;2023-05-09T03:20:31;102153.91;;;9.65;53.38
53932;BME280;39844;52.496;13.482;2023-05-09T03:22:57;102146.78;;;9.61;53.73
53932;BME280;39844;52.496;13.482;2023-05-09T03:25:22;102145.03;;;9.60;53.72
53932;BME280;39844;52.496;13.482;2023-05-09T03:27:47;102143.25;;;9.59;53.62
53932;BME280;39844;52.496;13.482;2023-05-09T03:30:13;102147.59;;;9.59;53.82
53932;BME280;39844;52.496;13.482;2023-05-09T03:32:38;102144.97;;;9.57;53.52
53932;BME280;39844;52.496;13.482;2023-05-09T03:35:06;102144.06;;;9.57;53.58
53932;BME280;39844;52.496;13.482;2023-05-09T03:37:31;102148.41;;;9.56;53.68
53932;BME280;39844;52.496;13.482;2023-05-09T03:39:57;102144.00;;;9.53;53.97
53932;BME280;39844;52.496;13.482;2023-05-09T03:42:22;102150.94;;;9.51;53.92
53932;BME280;39844;52.496;13.482;2023-05-09T03:44:47;102148.31;;;9.50;54.08
53932;BME280;39844;52.496;13.482;2023-05-09T03:47:12;102152.66;;;9.49;54.39
53932;BME280;39844;52.496;13.482;2023-05-09T03:49:38;102148.25;;;9.48;54.03
53932;BME280;39844;52.496;13.482;2023-05-09T03:52:03;102151.75;;;9.49;54.05
53932;BME280;39844;52.496;13.482;2023-05-09T03:54:31;102141.28;;;9.49;54.17
53932;BME280;39844;52.496;13.482;2023-05-09T03:56:56;102142.09;;;9.46;54.42
53932;BME280;39844;52.496;13.482;2023-05-09T03:59:21;102147.31;;;9.45;54.57
53932;BME280;39844;52.496;13.482;2023-05-09T04:01:47;102142.91;;;9.44;54.61
53932;BME280;39844;52.496;13.482;2023-05-09T04:04:12;102136.78;;;9.43;54.59
53932;BME280;39844;52.496;13.482;2023-05-09T04:06:37;102142.00;;;9.43;54.74
53932;BME280;39844;52.496;13.482;2023-05-09T04:09:03;102149.00;;;9.43;54.94
53932;BME280;39844;52.496;13.482;2023-05-09T04:11:28;102129.78;;;9.42;54.98
53932;BME280;39844;52.496;13.482;2023-05-09T04:13:53;102136.81;;;9.45;54.99
53932;BME280;39844;52.496;13.482;2023-05-09T04:16:19;102135.97;;;9.46;55.21
53932;BME280;39844;52.496;13.482;2023-05-09T04:18:44;102140.34;;;9.47;55.25
53932;BME280;39844;52.496;13.482;2023-05-09T04:21:09;102135.97;;;9.46;55.28
53932;BME280;39844;52.496;13.482;2023-05-09T04:23:34;102141.28;;;9.49;54.85
53932;BME280;39844;52.496;13.482;2023-05-09T04:26:00;102141.34;;;9.52;54.84
53932;BME280;39844;52.496;13.482;2023-05-09T04:28:25;102142.25;;;9.54;55.15
53932;BME280;39844;52.496;13.482;2023-05-09T04:30:50;102142.25;;;9.54;55.05
53932;BME280;39844;52.496;13.482;2023-05-09T04:33:16;102145.81;;;9.56;55.03
53932;BME280;39844;52.496;13.482;2023-05-09T04:35:41;102137.13;;;9.59;55.04
53932;BME280;39844;52.496;13.482;2023-05-09T04:38:06;102139.78;;;9.60;55.31
53932;BME280;39844;52.496;13.482;2023-05-09T04:40:32;102131.94;;;9.62;55.06
53932;BME280;39844;52.496;13.482;2023-05-09T04:42:57;102138.16;;;9.65;54.83
53932;BME280;39844;52.496;13.482;2023-05-09T04:45:22;102135.63;;;9.68;54.71
53932;BME280;39844;52.496;13.482;2023-05-09T04:47:47;102140.91;;;9.71;54.45
53932;BME280;39844;52.496;13.482;2023-05-09T04:50:13;102142.72;;;9.74;54.55
53932;BME280;39844;52.496;13.482;2023-05-09T04:52:38;102144.56;;;9.78;54.58
53932;BME280;39844;52.496;13.482;2023-05-09T04:55:04;102141.13;;;9.82;55.03
53932;BME280;39844;52.496;13.482;2023-05-09T04:57:29;102142.94;;;9.84;55.14
53932;BME280;39844;52.496;13.482;2023-05-09T04:59:54;102134.31;;;9.88;54.72
53932;BME280;39844;52.496;13.482;2023-05-09T05:02:20;102130.03;;;9.93;54.42
53932;BME280;39844;52.496;13.482;2023-05-09T05:04:45;102137.13;;;9.97;54.49
53932;BME280;39844;52.496;13.482;2023-05-09T05:07:10;102131.03;;;10.00;54.42
53932;BME280;39844;52.496;13.482;2023-05-09T05:09:36;102131.19;;;10.06;54.19
53932;BME280;39844;52.496;13.482;2023-05-09T05:12:01;102123.41;;;10.10;54.09
53932;BME280;39844;52.496;13.482;2023-05-09T05:14:26;102129.69;;;10.17;53.61
53932;BME280;39844;52.496;13.482;2023-05-09T05:16:51;102127.19;;;10.22;53.63
53932;BME280;39844;52.496;13.482;2023-05-09T05:19:17;102134.25;;;10.27;53.58
53932;BME280;39844;52.496;13.482;2023-05-09T05:21:42;102127.34;;;10.31;53.89
53932;BME280;39844;52.496;13.482;2023-05-09T05:24:07;102123.97;;;10.38;53.51
53932;BME280;39844;52.496;13.482;2023-05-09T05:26:33;102129.34;;;10.44;53.29
53932;BME280;39844;52.496;13.482;2023-05-09T05:28:58;102122.44;;;10.49;53.26
53932;BME280;39844;52.496;13.482;2023-05-09T05:31:23;102118.16;;;10.52;53.28
53932;BME280;39844;52.496;13.482;2023-05-09T05:33:48;102127.81;;;10.55;53.21
53932;BME280;39844;52.496;13.482;2023-05-09T05:36:14;102117.47;;;10.64;53.21
53932;BME280;39844;52.496;13.482;2023-05-09T05:38:39;102114.88;;;10.65;52.83
53932;BME280;39844;52.496;13.482;2023-05-09T05:41:04;102113.19;;;10.69;52.38
53932;BME280;39844;52.496;13.482;2023-05-09T05:43:30;102111.53;;;10.74;52.45
53932;BME280;39844;52.496;13.482;2023-05-09T05:45:55;102110.78;;;10.81;52.25
53932;BME280;39844;52.496;13.482;2023-05-09T05:48:20;102116.16;;;10.87;51.96
53932;BME280;39844;52.496;13.482;2023-05-09T05:50:46;102096.09;;;10.92;51.80
53932;BME280;39844;52.496;13.482;2023-05-09T05:53:11;102101.47;;;10.98;51.53
53932;BME280;39844;52.496;13.482;2023-05-09T05:55:36;102086.66;;;11.03;50.91
53932;BME280;39844;52.496;13.482;2023-05-09T05:58:02;102093.75;;;11.10;51.19
53932;BME280;39844;52.496;13.482;2023-05-09T06:00:27;102089.47;;;11.17;50.91
53932;BME280;39844;52.496;13.482;2023-05-09T06:02:52;102084.34;;;11.24;49.97
53932;BME280;39844;52.496;13.482;2023-05-09T06:05:17;102087.06;;;11.30;49.85
53932;BME280;39844;52.496;13.482;2023-05-09T06:07:43;102076.59;;;11.33;50.43
53932;BME280;39844;52.496;13.482;2023-05-09T06:10:09;102070.53;;;11.39;50.72
53932;BME280;39844;52.496;13.482;2023-05-09T06:12:34;102070.63;;;11.45;50.25
53932;BME280;39844;52.496;13.482;2023-05-09T06:14:59;102066.34;;;11.52;49.86
53932;BME280;39844;52.496;13.482;2023-05-09T06:17:25;102063.72;;;11.55;49.62
53932;BME280;39844;52.496;13.482;2023-05-09T06:19:50;102062.94;;;11.59;49.76
53932;BME280;39844;52.496;13.482;2023-05-09T06:22:15;102064.72;;;11.63;49.71
53932;BME280;39844;52.496;13.482;2023-05-09T06:24:41;102060.41;;;11.66;49.62
53932;BME280;39844;52.496;13.482;2023-05-09T06:27:06;102053.44;;;11.70;49.90
53932;BME280;39844;52.496;13.482;2023-05-09T06:29:31;102057.94;;;11.77;49.81
53932;BME280;39844;52.496;13.482;2023-05-09T06:31:56;102058.00;;;11.83;49.50
53932;BME280;39844;52.496;13.482;2023-05-09T06:34:22;102050.16;;;11.87;49.69
53932;BME280;39844;52.496;13.482;2023-05-09T06:36:47;102048.50;;;11.95;49.76
53932;BME280;39844;52.496;13.482;2023-05-09T06:39:12;102051.19;;;12.00;48.84
53932;BME280;39844;52.496;13.482;2023-05-09T06:41:37;102044.22;;;12.02;48.79
53932;BME280;39844;52.496;13.482;2023-05-09T06:44:03;102034.59;;;12.04;49.02
53932;BME280;39844;52.496;13.482;2023-05-09T06:46:28;102026.75;;;12.10;49.49
53932;BME280;39844;52.496;13.482;2023-05-09T06:48:53;102026.81;;;12.15;49.22
53932;BME280;39844;52.496;13.482;2023-05-09T06:51:19;102019.84;;;12.21;49.03
53932;BME280;39844;52.496;13.482;2023-05-09T06:53:44;102024.25;;;12.24;48.73
53932;BME280;39844;52.496;13.482;2023-05-09T06:56:10;102015.53;;;12.28;49.03
53932;BME280;39844;52.496;13.482;2023-05-09T06:58:35;102020.84;;;12.34;49.03
53932;BME280;39844;52.496;13.482;2023-05-09T07:01:01;102025.25;;;12.36;48.59
53932;BME280;39844;52.496;13.482;2023-05-09T07:03:26;102012.97;;;12.38;47.97
53932;BME280;39844;52.496;13.482;2023-05-09T07:05:51;102013.00;;;12.41;47.83
53932;BME280;39844;52.496;13.482;2023-05-09T07:08:17;101999.03;;;12.45;47.88
53932;BME280;39844;52.496;13.482;2023-05-09T07:10:42;102004.31;;;12.51;48.11
53932;BME280;39844;52.496;13.482;2023-05-09T07:13:07;101999.13;;;12.57;47.14
53932;BME280;39844;52.496;13.482;2023-05-09T07:15:33;101988.66;;;12.63;47.20
53932;BME280;39844;52.496;13.482;2023-05-09T07:17:58;101985.19;;;12.71;46.92
53932;BME280;39844;52.496;13.482;2023-05-09T07:20:23;101984.34;;;12.78;46.58
53932;BME280;39844;52.496;13.482;2023-05-09T07:22:48;101971.22;;;12.85;46.50
53932;BME280;39844;52.496;13.482;2023-05-09T07:25:14;101976.53;;;12.91;46.58
53932;BME280;39844;52.496;13.482;2023-05-09T07:27:39;101967.81;;;12.98;45.76
53932;BME280;39844;52.496;13.482;2023-05-09T07:30:05;101959.91;;;13.03;45.54
53932;BME280;39844;52.496;13.482;2023-05-09T07:32:31;101957.31;;;13.06;45.38
53932;BME280;39844;52.496;13.482;2023-05-09T07:34:56;101964.41;;;13.13;44.50
53932;BME280;39844;52.496;13.482;2023-05-09T07:37:21;101963.53;;;13.17;43.86
53932;BME280;39844;52.496;13.482;2023-05-09T07:39:47;101960.06;;;13.21;43.82
53932;BME280;39844;52.496;13.482;2023-05-09T07:42:12;101955.66;;;13.21;43.98
53932;BME280;39844;52.496;13.482;2023-05-09T07:44:38;101944.22;;;13.22;44.20
53932;BME280;39844;52.496;13.482;2023-05-09T07:47:03;101936.38;;;13.27;44.51
53932;BME280;39844;52.496;13.482;2023-05-09T07:49:29;101934.63;;;13.32;43.85
53932;BME280;39844;52.496;13.482;2023-05-09T07:51:54;101936.38;;;13.33;43.94
53932;BME280;39844;52.496;13.482;2023-05-09T07:54:19;101923.19;;;13.38;43.33
53932;BME280;39844;52.496;13.482;2023-05-09T07:56:44;101924.09;;;13.43;43.21
53932;BME280;39844;52.496;13.482;2023-05-09T07:59:10;101915.34;;;13.50;43.31
53932;BME280;39844;52.496;13.482;2023-05-09T08:01:35;101920.63;;;13.60;43.46
53932;BME280;39844;52.496;13.482;2023-05-09T08:04:00;101920.66;;;13.66;43.43
53932;BME280;39844;52.496;13.482;2023-05-09T08:06:25;101920.66;;;13.74;43.41
53932;BME280;39844;52.496;13.482;2023-05-09T08:08:51;101899.56;;;13.78;43.21
53932;BME280;39844;52.496;13.482;2023-05-09T08:11:16;101901.34;;;13.85;43.23
53932;BME280;39844;52.496;13.482;2023-05-09T08:13:42;101904.88;;;13.90;43.45
53932;BME280;39844;52.496;13.482;2023-05-09T08:16:07;101897.84;;;13.96;42.50
53932;BME280;39844;52.496;13.482;2023-05-09T08:18:32;101896.97;;;14.04;41.61
53932;BME280;39844;52.496;13.482;2023-05-09T08:20:58;101899.59;;;14.12;42.25
53932;BME280;39844;52.496;13.482;2023-05-09T08:23:23;101897.84;;;14.20;41.20
53932;BME280;39844;52.496;13.482;2023-05-09T08:25:54;101890.81;;;14.22;40.69
53932;BME280;39844;52.496;13.482;2023-05-09T08:28:19;101883.75;;;14.24;40.64
53932;BME280;39844;52.496;13.482;2023-05-09T08:30:44;101878.50;;;14.33;40.94
53932;BME280;39844;52.496;13.482;2023-05-09T08:33:10;101888.19;;;14.37;40.28
53932;BME280;39844;52.496;13.482;2023-05-09T08:35:35;101874.09;;;14.41;39.58
53932;BME280;39844;52.496;13.482;2023-05-09T08:38:00;101885.53;;;14.40;39.75
53932;BME280;39844;52.496;13.482;2023-05-09T08:40:25;101875.84;;;14.42;40.26
53932;BME280;39844;52.496;13.482;2023-05-09T08:42:51;101873.22;;;14.45;40.61
53932;BME280;39844;52.496;13.482;2023-05-09T08:45:22;101878.50;;;14.48;40.12
53932;BME280;39844;52.496;13.482;2023-05-09T08:47:49;101886.41;;;14.49;40.62
53932;BME280;39844;52.496;13.482;2023-05-09T08:50:15;101882.91;;;14.53;40.86
53932;BME280;39844;52.496;13.482;2023-05-09T08:52:41;101885.50;;;14.60;40.83
53932;BME280;39844;52.496;13.482;2023-05-09T08:55:07;101879.34;;;14.61;40.99
53932;BME280;39844;52.496;13.482;2023-05-09T08:57:32;101880.25;;;14.61;41.26
53932;BME280;39844;52.496;13.482;2023-05-09T08:59:58;101865.25;;;14.63;41.38
53932;BME280;39844;52.496;13.482;2023-05-09T09:02:23;101879.34;;;14.68;40.42
53932;BME280;39844;52.496;13.482;2023-05-09T09:04:48;101857.31;;;14.69;39.19
53932;BME280;39844;52.496;13.482;2023-05-09T09:07:14;101870.53;;;14.69;39.64
53932;BME280;39844;52.496;13.482;2023-05-09T09:09:43;101859.06;;;14.73;39.36
53932;BME280;39844;52.496;13.482;2023-05-09T09:12:10;101862.56;;;14.80;39.68
53932;BME280;39844;52.496;13.482;2023-05-09T09:14:37;101864.31;;;14.82;40.03
53932;BME280;39844;52.496;13.482;2023-05-09T09:17:04;101855.50;;;14.89;40.92
53932;BME280;39844;52.496;13.482;2023-05-09T09:19:30;101870.44;;;14.99;39.81
53932;BME280;39844;52.496;13.482;2023-05-09T09:22:00;101845.72;;;15.06;40.16
53932;BME280;39844;52.496;13.482;2023-05-09T09:24:26;101853.59;;;15.15;39.70
53932;BME280;39844;52.496;13.482;2023-05-09T09:26:52;101849.16;;;15.24;38.33
53932;BME280;39844;52.496;13.482;2023-05-09T09:29:18;101846.50;;;15.30;37.78
53932;BME280;39844;52.496;13.482;2023-05-09T09:31:45;101838.53;;;15.33;38.00
53932;BME280;39844;52.496;13.482;2023-05-09T09:34:12;101841.13;;;15.42;37.71
53932;BME280;39844;52.496;13.482;2023-05-09T09:36:37;101845.53;;;15.47;37.86
53932;BME280;39844;52.496;13.482;2023-05-09T09:39:03;101827.00;;;15.47;37.41
53932;BME280;39844;52.496;13.482;2023-05-09T09:41:34;101830.50;;;15.54;38.29
53932;BME280;39844;52.496;13.482;2023-05-09T09:44:12;101826.88;;;15.64;38.26
53932;BME280;39844;52.496;13.482;2023-05-09T09:49:08;101812.56;;;15.89;38.09
53932;BME280;39844;52.496;13.482;2023-05-09T09:51:33;101808.91;;;16.05;38.38
53932;BME280;39844;52.496;13.482;2023-05-09T09:54:01;101821.03;;;16.30;38.23
53932;BME280;39844;52.496;13.482;2023-05-09T09:56:46;101796.00;;;16.62;37.05
53932;BME280;39844;52.496;13.482;2023-05-09T09:59:14;101803.53;;;16.95;36.81
53932;BME280;39844;52.496;13.482;2023-05-09T10:02:03;101803.88;;;17.36;35.47
53932;BME280;39844;52.496;13.482;2023-05-09T10:04:30;101794.38;;;17.80;35.62
53932;BME280;39844;52.496;13.482;2023-05-09T10:06:57;101790.16;;;18.17;34.10
53932;BME280;39844;52.496;13.482;2023-05-09T10:09:24;101783.13;;;18.62;33.24
53932;BME280;39844;52.496;13.482;2023-05-09T10:11:50;101779.53;;;19.06;32.92
53932;BME280;39844;52.496;13.482;2023-05-09T10:14:21;101776.09;;;19.40;32.10
53932;BME280;39844;52.496;13.482;2023-05-09T10:16:49;101766.78;;;19.58;30.83
53932;BME280;39844;52.496;13.482;2023-05-09T10:19:19;101763.53;;;19.82;30.19
53932;BME280;39844;52.496;13.482;2023-05-09T10:21:57;101759.25;;;20.10;30.25
53932;BME280;39844;52.496;13.482;2023-05-09T10:25:05;101767.25;;;20.43;29.21
53932;BME280;39844;52.496;13.482;2023-05-09T10:27:34;101767.19;;;20.75;29.51
53932;BME280;39844;52.496;13.482;2023-05-09T10:30:08;101749.00;;;20.89;27.50
53932;BME280;39844;52.496;13.482;2023-05-09T10:32:53;101754.75;;;21.05;27.68
53932;BME280;39844;52.496;13.482;2023-05-09T10:35:25;101746.97;;;21.26;28.34
53932;BME280;39844;52.496;13.482;2023-05-09T10:37:54;101736.22;;;21.56;28.35
53932;BME280;39844;52.496;13.482;2023-05-09T10:40:20;101735.56;;;21.75;26.41
53932;BME280;39844;52.496;13.482;2023-05-09T10:42:45;101720.16;;;22.08;27.57
53932;BME280;39844;52.496;13.482;2023-05-09T10:45:11;101728.72;;;22.18;27.41
53932;BME280;39844;52.496;13.482;2023-05-09T10:47:38;101730.81;;;22.34;27.58
53932;BME280;39844;52.496;13.482;2023-05-09T10:50:05;101720.88;;;22.61;26.70
53932;BME280;39844;52.496;13.482;2023-05-09T10:52:32;101723.88;;;22.77;27.04
53932;BME280;39844;52.496;13.482;2023-05-09T10:54:59;101713.03;;;23.03;26.80
53932;BME280;39844;52.496;13.482;2023-05-09T10:57:25;101728.59;;;23.38;26.44
53932;BME280;39844;52.496;13.482;2023-05-09T10:59:50;101709.44;;;23.69;25.97
53932;BME280;39844;52.496;13.482;2023-05-09T11:02:18;101723.31;;;23.78;25.27
53932;BME280;39844;52.496;13.482;2023-05-09T11:04:44;101702.41;;;24.07;25.67
53932;BME280;39844;52.496;13.482;2023-05-09T11:07:26;101707.56;;;24.31;25.86
53932;BME280;39844;52.496;13.482;2023-05-09T11:10:15;101697.72;;;24.32;24.10
53932;BME280;39844;52.496;13.482;2023-05-09T11:12:54;101687.28;;;24.44;25.99
53932;BME280;39844;52.496;13.482;2023-05-09T11:15:20;101683.09;;;24.58;26.09
53932;BME280;39844;52.496;13.482;2023-05-09T11:17:49;101681.47;;;24.53;25.16
53932;BME280;39844;52.496;13.482;2023-05-09T11:20:15;101673.38;;;24.55;25.61
53932;BME280;39844;52.496;13.482;2023-05-09T11:22:42;101670.50;;;24.78;25.42
53932;BME280;39844;52.496;13.482;2023-05-09T11:25:09;101659.06;;;25.10;24.32
53932;BME280;39844;52.496;13.482;2023-05-09T11:27:46;101663.66;;;25.08;22.97
53932;BME280;39844;52.496;13.482;2023-05-09T11:30:14;101665.31;;;24.92;24.05
53932;BME280;39844;52.496;13.482;2023-05-09T11:32:50;101657.69;;;25.02;23.98
53932;BME280;39844;52.496;13.482;2023-05-09T11:35:20;101644.69;;;25.11;25.08
53932;BME280;39844;52.496;13.482;2023-05-09T11:37:48;101642.66;;;25.17;23.99
53932;BME280;39844;52.496;13.482;2023-05-09T11:40:18;101635.94;;;24.71;23.33
53932;BME280;39844;52.496;13.482;2023-05-09T11:42:46;101626.94;;;24.90;22.87
53932;BME280;39844;52.496;13.482;2023-05-09T11:45:12;101625.72;;;24.79;23.25
53932;BME280;39844;52.496;13.482;2023-05-09T11:47:38;101625.28;;;25.05;24.49
53932;BME280;39844;52.496;13.482;2023-05-09T11:50:08;101620.19;;;25.18;22.79
53932;BME280;39844;52.496;13.482;2023-05-09T11:52:33;101622.03;;;25.34;23.89
53932;BME280;39844;52.496;13.482;2023-05-09T11:54:59;101585.56;;;25.29;22.78
53932;BME280;39844;52.496;13.482;2023-05-09T11:57:24;101607.00;;;24.94;22.61
53932;BME280;39844;52.496;13.482;2023-05-09T11:59:49;101597.38;;;24.90;23.43
53932;BME280;39844;52.496;13.482;2023-05-09T12:02:15;101603.25;;;24.98;23.42
53932;BME280;39844;52.496;13.482;2023-05-09T12:04:40;101598.38;;;25.06;24.94
53932;BME280;39844;52.496;13.482;2023-05-09T12:07:06;101596.34;;;24.74;22.59
53932;BME280;39844;52.496;13.482;2023-05-09T12:09:32;101590.50;;;24.66;22.63
53932;BME280;39844;52.496;13.482;2023-05-09T12:11:59;101580.91;;;24.42;23.04
53932;BME280;39844;52.496;13.482;2023-05-09T12:14:32;101566.84;;;24.37;23.69
53932;BME280;39844;52.496;13.482;2023-05-09T12:16:58;101573.94;;;24.19;23.79
53932;BME280;39844;52.496;13.482;2023-05-09T12:19:24;101569.88;;;24.11;23.65
53932;BME280;39844;52.496;13.482;2023-05-09T12:21:57;101560.91;;;24.30;24.99
53932;BME280;39844;52.496;13.482;2023-05-09T12:24:26;101553.63;;;24.14;23.47
53932;BME280;39844;52.496;13.482;2023-05-09T12:26:53;101561.44;;;24.00;23.43
53932;BME280;39844;52.496;13.482;2023-05-09T12:29:20;101554.31;;;23.99;24.23
53932;BME280;39844;52.496;13.482;2023-05-09T12:31:46;101556.06;;;24.00;24.55
53932;BME280;39844;52.496;13.482;2023-05-09T12:34:12;101542.00;;;23.95;24.43
53932;BME280;39844;52.496;13.482;2023-05-09T12:36:37;101543.72;;;23.96;24.50
53932;BME280;39844;52.496;13.482;2023-05-09T12:39:09;101538.28;;;23.78;24.53
53932;BME280;39844;52.496;13.482;2023-05-09T12:41:41;101531.81;;;23.82;24.00
53932;BME280;39844;52.496;13.482;2023-05-09T12:44:06;101532.50;;;23.67;24.20
53932;BME280;39844;52.496;13.482;2023-05-09T12:46:32;101539.66;;;23.48;24.32
53932;BME280;39844;52.496;13.482;2023-05-09T12:48:58;101538.69;;;23.49;24.55
53932;BME280;39844;52.496;13.482;2023-05-09T12:51:23;101529.81;;;23.49;24.87